sensor_id;sensor_type;location;lat;lon;timestamp;pressure;altitude;pressure_sealevel;temperature;humidity
14089;BME280;7120;52.890;6.040;2023-02-23T00:01:15;101189.88;;;9.31;93.29
14089;BME280;7120;52.890;6.040;2023-02-23T00:03:42;101175.75;;;9.24;93.46
14089;BME280;7120;52.890;6.040;2023-02-23T00:06:08;101184.13;;;9.33;93.27
14089;BME280;7120;52.890;6.040;2023-02-23T00:08:35;101185.16;;;9.37;92.80
14089;BME280;7120;52.890;6.040;2023-02-23T00:11:06;101188.50;;;9.29;93.12
14089;BME280;7120;52.890;6.040;2023-02-23T00:13:33;101186.03;;;9.32;93.26
14089;BME280;7120;52.890;6.040;2023-02-23T00:16:15;101187.66;;;9.33;93.23
14089;BME280;7120;52.890;6.040;2023-02-23T00:18:43;101189.28;;;9.34;93.60
14089;BME280;7120;52.890;6.040;2023-02-23T00:21:11;101187.75;;;9.23;93.20
14089;BME280;7120;52.890;6.040;2023-02-23T00:23:46;101195.44;;;9.16;93.79
14089;BME280;7120;52.890;6.040;2023-02-23T00:26:12;101197.94;;;9.07;94.39
14089;BME280;7120;52.890;6.040;2023-02-23T00:28:39;101199.31;;;9.10;94.75
14089;BME280;7120;52.890;6.040;2023-02-23T00:31:06;101201.53;;;9.03;94.67
14089;BME280;7120;52.890;6.040;2023-02-23T00:33:32;101206.44;;;9.01;94.90
14089;BME280;7120;52.890;6.040;2023-02-23T00:36:03;101187.31;;;9.06;94.40
14089;BME280;7120;52.890;6.040;2023-02-23T00:38:29;101200.66;;;9.07;94.16
14089;BME280;7120;52.890;6.040;2023-02-23T00:40:59;101202.06;;;9.05;94.87
14089;BME280;7120;52.890;6.040;2023-02-23T00:43:24;101204.75;;;9.10;94.64
14089;BME280;7120;52.890;6.040;2023-02-23T00:45:54;101198.44;;;9.15;94.60
14089;BME280;7120;52.890;6.040;2023-02-23T00:48:20;101211.25;;;9.19;94.58
14089;BME280;7120;52.890;6.040;2023-02-23T00:50:45;101198.13;;;9.21;94.39
14089;BME280;7120;52.890;6.040;2023-02-23T00:53:14;101198.44;;;9.15;93.73
14089;BME280;7120;52.890;6.040;2023-02-23T00:55:40;101190.81;;;9.17;94.53
14089;BME280;7120;52.890;6.040;2023-02-23T00:58:05;101206.00;;;9.23;93.99
14089;BME280;7120;52.890;6.040;2023-02-23T01:00:33;101203.56;;;9.26;94.14
14089;BME280;7120;52.890;6.040;2023-02-23T01:03:06;101192.44;;;9.18;94.77
14089;BME280;7120;52.890;6.040;2023-02-23T01:05:35;101211.53;;;9.18;94.94
14089;BME280;7120;52.890;6.040;2023-02-23T01:08:00;101205.28;;;9.12;94.86
14089;BME280;7120;52.890;6.040;2023-02-23T01:10:26;101197.44;;;9.00;94.55
14089;BME280;7120;52.890;6.040;2023-02-23T01:12:52;101202.47;;;9.22;94.64
14089;BME280;7120;52.890;6.040;2023-02-23T01:15:19;101209.00;;;9.26;94.17
14089;BME280;7120;52.890;6.040;2023-02-23T01:17:45;101207.22;;;9.06;94.38
14089;BME280;7120;52.890;6.040;2023-02-23T01:20:13;101213.38;;;9.22;94.61
14089;BME280;7120;52.890;6.040;2023-02-23T01:22:48;101202.91;;;9.00;94.32
14089;BME280;7120;52.890;6.040;2023-02-23T01:25:15;101215.63;;;9.15;94.50
14089;BME280;7120;52.890;6.040;2023-02-23T01:27:41;101214.28;;;9.13;94.30
14089;BME280;7120;52.890;6.040;2023-02-23T01:30:08;101208.84;;;9.13;94.37
14089;BME280;7120;52.890;6.040;2023-02-23T01:32:36;101214.59;;;9.06;94.15
14089;BME280;7120;52.890;6.040;2023-02-23T01:35:04;101209.94;;;9.12;94.78
14089;BME280;7120;52.890;6.040;2023-02-23T01:37:33;101213.81;;;9.00;94.41
14089;BME280;7120;52.890;6.040;2023-02-23T01:39:59;101206.88;;;9.18;94.38
14089;BME280;7120;52.890;6.040;2023-02-23T01:42:25;101207.13;;;9.22;93.96
14089;BME280;7120;52.890;6.040;2023-02-23T01:47:44;101204.25;;;9.03;93.90
14089;BME280;7120;52.890;6.040;2023-02-23T01:50:09;101215.59;;;9.20;94.59
14089;BME280;7120;52.890;6.040;2023-02-23T01:52:37;101213.75;;;9.11;93.93
14089;BME280;7120;52.890;6.040;2023-02-23T01:55:04;101225.50;;;9.06;93.93
14089;BME280;7120;52.890;6.040;2023-02-23T01:57:30;101228.63;;;9.28;93.90
14089;BME280;7120;52.890;6.040;2023-02-23T01:59:56;101220.22;;;9.25;93.74
14089;BME280;7120;52.890;6.040;2023-02-23T02:02:25;101224.81;;;9.29;93.90
14089;BME280;7120;52.890;6.040;2023-02-23T02:04:58;101213.69;;;9.21;92.89
14089;BME280;7120;52.890;6.040;2023-02-23T02:07:28;101217.31;;;9.06;94.08
14089;BME280;7120;52.890;6.040;2023-02-23T02:09:56;101224.38;;;9.17;94.54
14089;BME280;7120;52.890;6.040;2023-02-23T02:12:39;101220.38;;;8.99;93.89
14089;BME280;7120;52.890;6.040;2023-02-23T02:15:06;101206.50;;;8.91;94.68
14089;BME280;7120;52.890;6.040;2023-02-23T02:43:05;101192.66;;;9.21;93.38
14089;BME280;7120;52.890;6.040;2023-02-23T02:50:44;101211.03;;;9.11;93.98
14089;BME280;7120;52.890;6.040;2023-02-23T02:53:17;101204.19;;;9.13;93.62
14089;BME280;7120;52.890;6.040;2023-02-23T02:55:46;101203.16;;;9.04;93.43
14089;BME280;7120;52.890;6.040;2023-02-23T02:58:13;101199.03;;;9.06;93.09
14089;BME280;7120;52.890;6.040;2023-02-23T03:00:47;101201.75;;;9.12;93.16
14089;BME280;7120;52.890;6.040;2023-02-23T03:03:36;101214.19;;;9.23;92.33
14089;BME280;7120;52.890;6.040;2023-02-23T03:06:36;101209.97;;;9.06;93.01
14089;BME280;7120;52.890;6.040;2023-02-23T03:09:45;101215.88;;;9.19;92.81
14089;BME280;7120;52.890;6.040;2023-02-23T03:13:09;101219.56;;;8.99;92.94
14089;BME280;7120;52.890;6.040;2023-02-23T03:19:47;101200.75;;;8.97;93.12
14089;BME280;7120;52.890;6.040;2023-02-23T03:22:43;101219.56;;;8.99;93.01
14089;BME280;7120;52.890;6.040;2023-02-23T03:31:40;101223.44;;;8.88;93.17
14089;BME280;7120;52.890;6.040;2023-02-23T03:34:40;101218.25;;;8.91;93.63
14089;BME280;7120;52.890;6.040;2023-02-23T03:40:20;101227.00;;;8.83;93.07
14089;BME280;7120;52.890;6.040;2023-02-23T03:43:09;101227.84;;;8.84;92.40
14089;BME280;7120;52.890;6.040;2023-02-23T03:45:55;101224.81;;;8.85;92.40
14089;BME280;7120;52.890;6.040;2023-02-23T03:48:42;101241.47;;;8.78;91.75
14089;BME280;7120;52.890;6.040;2023-02-23T03:51:30;101237.34;;;8.91;91.82
14089;BME280;7120;52.890;6.040;2023-02-23T03:54:38;101243.06;;;8.90;90.77
14089;BME280;7120;52.890;6.040;2023-02-23T03:57:26;101237.97;;;8.73;90.59
14089;BME280;7120;52.890;6.040;2023-02-23T04:00:16;101247.78;;;8.74;90.98
14089;BME280;7120;52.890;6.040;2023-02-23T04:03:03;101239.06;;;8.67;91.13
14089;BME280;7120;52.890;6.040;2023-02-23T04:05:49;101242.38;;;8.59;90.83
14089;BME280;7120;52.890;6.040;2023-02-23T04:08:36;101244.59;;;8.51;91.76
14089;BME280;7120;52.890;6.040;2023-02-23T04:14:30;101251.13;;;8.61;92.35
14089;BME280;7120;52.890;6.040;2023-02-23T04:16:57;101242.38;;;8.59;91.64
14089;BME280;7120;52.890;6.040;2023-02-23T04:19:26;101254.38;;;8.68;91.53
14089;BME280;7120;52.890;6.040;2023-02-23T04:21:52;101245.38;;;8.62;92.04
14089;BME280;7120;52.890;6.040;2023-02-23T04:24:18;101251.06;;;8.71;91.66
14089;BME280;7120;52.890;6.040;2023-02-23T04:26:43;101248.31;;;8.76;91.81
14089;BME280;7120;52.890;6.040;2023-02-23T04:29:10;101252.16;;;8.75;91.67
14089;BME280;7120;52.890;6.040;2023-02-23T04:31:37;101251.06;;;8.66;91.96
14089;BME280;7120;52.890;6.040;2023-02-23T04:34:03;101252.69;;;8.67;92.38
14089;BME280;7120;52.890;6.040;2023-02-23T04:36:29;101258.16;;;8.72;92.03
14089;BME280;7120;52.890;6.040;2023-02-23T04:38:54;101251.03;;;8.76;91.72
14089;BME280;7120;52.890;6.040;2023-02-23T04:41:20;101252.69;;;8.77;92.31
14089;BME280;7120;52.890;6.040;2023-02-23T04:43:45;101259.25;;;8.66;93.15
14089;BME280;7120;52.890;6.040;2023-02-23T04:46:11;101252.53;;;8.48;92.83
14089;BME280;7120;52.890;6.040;2023-02-23T04:48:36;101258.22;;;8.51;94.40
14089;BME280;7120;52.890;6.040;2023-02-23T04:51:02;101260.69;;;8.48;94.28
14089;BME280;7120;52.890;6.040;2023-02-23T04:53:27;101247.56;;;8.60;94.03
14089;BME280;7120;52.890;6.040;2023-02-23T04:55:53;101253.28;;;8.59;93.41
14089;BME280;7120;52.890;6.040;2023-02-23T04:58:18;101253.56;;;8.62;93.19
14089;BME280;7120;52.890;6.040;2023-02-23T05:00:44;101252.53;;;8.43;93.96
14089;BME280;7120;52.890;6.040;2023-02-23T05:03:10;101269.69;;;8.48;95.04
14089;BME280;7120;52.890;6.040;2023-02-23T05:05:36;101265.28;;;8.63;94.65
14089;BME280;7120;52.890;6.040;2023-02-23T05:08:02;101266.09;;;8.68;93.88
14089;BME280;7120;52.890;6.040;2023-02-23T05:10:27;101262.25;;;8.69;93.24
14089;BME280;7120;52.890;6.040;2023-02-23T05:12:53;101268.47;;;8.80;92.91
14089;BME280;7120;52.890;6.040;2023-02-23T05:15:19;101262.75;;;8.82;92.92
14089;BME280;7120;52.890;6.040;2023-02-23T05:17:45;101274.19;;;8.84;92.53
14089;BME280;7120;52.890;6.040;2023-02-23T05:20:12;101273.63;;;8.87;92.98
14089;BME280;7120;52.890;6.040;2023-02-23T05:22:38;101272.56;;;8.83;92.63
14089;BME280;7120;52.890;6.040;2023-02-23T05:25:04;101273.09;;;8.79;92.52
14089;BME280;7120;52.890;6.040;2023-02-23T05:27:30;101279.13;;;8.82;92.72
14089;BME280;7120;52.890;6.040;2023-02-23T05:29:57;101277.81;;;8.69;92.86
14089;BME280;7120;52.890;6.040;2023-02-23T05:32:22;101285.97;;;8.74;93.37
14089;BME280;7120;52.890;6.040;2023-02-23T05:34:48;101275.38;;;8.57;93.77
14089;BME280;7120;52.890;6.040;2023-02-23T05:37:13;101286.00;;;8.64;92.65
14089;BME280;7120;52.890;6.040;2023-02-23T05:39:39;101284.13;;;8.49;93.89
14089;BME280;7120;52.890;6.040;2023-02-23T05:42:05;101280.59;;;8.48;94.42
14089;BME280;7120;52.890;6.040;2023-02-23T05:44:30;101281.09;;;8.61;93.81
14089;BME280;7120;52.890;6.040;2023-02-23T05:46:55;101288.13;;;8.72;93.44
14089;BME280;7120;52.890;6.040;2023-02-23T05:49:21;101287.38;;;8.56;93.47
14089;BME280;7120;52.890;6.040;2023-02-23T05:51:47;101279.72;;;8.63;93.76
14089;BME280;7120;52.890;6.040;2023-02-23T05:54:12;101284.06;;;8.69;93.88
14089;BME280;7120;52.890;6.040;2023-02-23T05:56:38;101272.66;;;8.62;93.80
14089;BME280;7120;52.890;6.040;2023-02-23T05:59:04;101280.47;;;8.84;93.29
14089;BME280;7120;52.890;6.040;2023-02-23T06:01:29;101285.09;;;8.84;92.94
14089;BME280;7120;52.890;6.040;2023-02-23T06:03:55;101286.72;;;8.85;92.20
14089;BME280;7120;52.890;6.040;2023-02-23T06:06:20;101290.34;;;8.70;92.60
14089;BME280;7120;52.890;6.040;2023-02-23T06:08:47;101300.94;;;8.82;92.42
14089;BME280;7120;52.890;6.040;2023-02-23T06:11:13;101279.38;;;8.85;92.14
14089;BME280;7120;52.890;6.040;2023-02-23T06:13:39;101288.31;;;8.96;92.24
14089;BME280;7120;52.890;6.040;2023-02-23T06:16:05;101276.84;;;8.94;91.64
14089;BME280;7120;52.890;6.040;2023-02-23T06:18:32;101299.50;;;8.94;91.35
14089;BME280;7120;52.890;6.040;2023-02-23T06:21:02;101303.31;;;8.93;91.13
14089;BME280;7120;52.890;6.040;2023-02-23T06:23:28;101304.94;;;8.94;91.87
14089;BME280;7120;52.890;6.040;2023-02-23T06:25:54;101300.28;;;9.00;91.47
14089;BME280;7120;52.890;6.040;2023-02-23T06:28:20;101303.38;;;8.83;91.54
14089;BME280;7120;52.890;6.040;2023-02-23T06:30:45;101298.97;;;8.92;91.88
14089;BME280;7120;52.890;6.040;2023-02-23T06:33:11;101303.09;;;8.79;91.36
14089;BME280;7120;52.890;6.040;2023-02-23T06:35:36;101309.88;;;8.92;91.72
14089;BME280;7120;52.890;6.040;2023-02-23T06:38:05;101314.88;;;8.70;92.01
14089;BME280;7120;52.890;6.040;2023-02-23T06:40:31;101325.72;;;8.85;92.46
14089;BME280;7120;52.890;6.040;2023-02-23T06:42:56;101314.31;;;8.78;92.14
14089;BME280;7120;52.890;6.040;2023-02-23T06:45:22;101329.84;;;8.72;92.37
14089;BME280;7120;52.890;6.040;2023-02-23T06:47:47;101324.63;;;8.86;92.63
14089;BME280;7120;52.890;6.040;2023-02-23T06:50:14;101337.72;;;8.89;92.57
14089;BME280;7120;52.890;6.040;2023-02-23T06:52:40;101335.25;;;8.88;92.50
14089;BME280;7120;52.890;6.040;2023-02-23T06:55:06;101324.44;;;8.52;92.88
14089;BME280;7120;52.890;6.040;2023-02-23T06:57:32;101346.19;;;8.83;93.70
14089;BME280;7120;52.890;6.040;2023-02-23T06:59:57;101340.75;;;8.77;93.84
14089;BME280;7120;52.890;6.040;2023-02-23T07:02:23;101352.75;;;8.76;93.14
14089;BME280;7120;52.890;6.040;2023-02-23T07:04:48;101353.56;;;8.77;94.47
14089;BME280;7120;52.890;6.040;2023-02-23T07:07:13;101353.25;;;8.94;93.19
14089;BME280;7120;52.890;6.040;2023-02-23T07:09:40;101355.72;;;8.80;93.70
14089;BME280;7120;52.890;6.040;2023-02-23T07:12:07;101355.72;;;8.80;93.68
14089;BME280;7120;52.890;6.040;2023-02-23T07:14:33;101357.59;;;8.95;93.44
14089;BME280;7120;52.890;6.040;2023-02-23T07:16:59;101358.69;;;8.99;92.93
14089;BME280;7120;52.890;6.040;2023-02-23T07:19:24;101361.09;;;9.11;92.51
14089;BME280;7120;52.890;6.040;2023-02-23T07:21:50;101367.69;;;8.94;93.12
14089;BME280;7120;52.890;6.040;2023-02-23T07:24:15;101366.28;;;9.02;92.87
14089;BME280;7120;52.890;6.040;2023-02-23T07:26:41;101377.25;;;8.97;92.67
14089;BME280;7120;52.890;6.040;2023-02-23T07:29:10;101372.59;;;8.97;93.31
14089;BME280;7120;52.890;6.040;2023-02-23T07:31:36;101376.13;;;9.03;93.85
14089;BME280;7120;52.890;6.040;2023-02-23T07:34:02;101387.00;;;9.13;93.13
14089;BME280;7120;52.890;6.040;2023-02-23T07:36:27;101387.31;;;9.01;93.20
14089;BME280;7120;52.890;6.040;2023-02-23T07:38:53;101388.97;;;8.92;93.18
14089;BME280;7120;52.890;6.040;2023-02-23T07:41:18;101390.09;;;8.91;93.26
14089;BME280;7120;52.890;6.040;2023-02-23T07:43:44;101391.41;;;8.99;93.64
14089;BME280;7120;52.890;6.040;2023-02-23T07:46:09;101391.94;;;9.06;93.20
14089;BME280;7120;52.890;6.040;2023-02-23T07:48:34;101395.16;;;9.23;93.22
14089;BME280;7120;52.890;6.040;2023-02-23T07:51:00;101404.13;;;9.29;92.57
14089;BME280;7120;52.890;6.040;2023-02-23T07:53:25;101403.94;;;9.05;93.23
14089;BME280;7120;52.890;6.040;2023-02-23T07:55:59;101413.47;;;9.18;92.95
14089;BME280;7120;52.890;6.040;2023-02-23T07:58:26;101410.44;;;9.24;92.63
14089;BME280;7120;52.890;6.040;2023-02-23T08:00:51;101416.72;;;9.15;93.22
14089;BME280;7120;52.890;6.040;2023-02-23T08:03:16;101407.16;;;9.22;93.64
14089;BME280;7120;52.890;6.040;2023-02-23T08:05:42;101420.72;;;9.43;93.36
14089;BME280;7120;52.890;6.040;2023-02-23T08:08:09;101415.25;;;9.43;92.77
14089;BME280;7120;52.890;6.040;2023-02-23T08:10:35;101416.63;;;9.45;92.62
14089;BME280;7120;52.890;6.040;2023-02-23T08:13:00;101415.47;;;9.56;91.87
14089;BME280;7120;52.890;6.040;2023-02-23T08:15:25;101417.47;;;9.41;92.44
14089;BME280;7120;52.890;6.040;2023-02-23T08:17:51;101406.81;;;9.39;92.24
14089;BME280;7120;52.890;6.040;2023-02-23T08:20:16;101425.56;;;9.56;92.06
14089;BME280;7120;52.890;6.040;2023-02-23T08:22:42;101427.50;;;9.55;91.53
14089;BME280;7120;52.890;6.040;2023-02-23T08:25:08;101422.31;;;9.54;91.21
14089;BME280;7120;52.890;6.040;2023-02-23T08:27:35;101429.59;;;9.74;92.13
14089;BME280;7120;52.890;6.040;2023-02-23T08:30:00;101425.47;;;9.76;91.99
14089;BME280;7120;52.890;6.040;2023-02-23T08:32:29;101429.31;;;9.75;91.48
14089;BME280;7120;52.890;6.040;2023-02-23T08:34:59;101436.41;;;9.76;91.30
14089;BME280;7120;52.890;6.040;2023-02-23T08:37:26;101434.06;;;9.54;90.21
14089;BME280;7120;52.890;6.040;2023-02-23T08:39:53;101429.41;;;9.50;91.31
14089;BME280;7120;52.890;6.040;2023-02-23T08:42:19;101426.75;;;9.45;91.11
14089;BME280;7120;52.890;6.040;2023-02-23T08:44:45;101426.81;;;9.19;91.89
14089;BME280;7120;52.890;6.040;2023-02-23T08:47:10;101433.22;;;8.69;93.05
14089;BME280;7120;52.890;6.040;2023-02-23T08:49:36;101435.16;;;8.53;94.51
14089;BME280;7120;52.890;6.040;2023-02-23T08:52:01;101422.31;;;8.64;93.48
14089;BME280;7120;52.890;6.040;2023-02-23T08:54:26;101435.41;;;8.57;93.11
14089;BME280;7120;52.890;6.040;2023-02-23T08:56:54;101429.97;;;8.41;94.69
14089;BME280;7120;52.890;6.040;2023-02-23T08:59:20;101434.31;;;8.32;94.50
14089;BME280;7120;52.890;6.040;2023-02-23T09:01:46;101434.31;;;8.42;94.74
14089;BME280;7120;52.890;6.040;2023-02-23T09:04:11;101432.94;;;8.45;94.64
14089;BME280;7120;52.890;6.040;2023-02-23T09:06:37;101449.03;;;8.67;94.05
14089;BME280;7120;52.890;6.040;2023-02-23T09:09:02;101435.94;;;8.64;94.32
14089;BME280;7120;52.890;6.040;2023-02-23T09:11:27;101446.28;;;8.67;93.51
14089;BME280;7120;52.890;6.040;2023-02-23T09:13:53;101446.28;;;8.77;94.83
14089;BME280;7120;52.890;6.040;2023-02-23T09:16:19;101462.59;;;9.07;93.04
14089;BME280;7120;52.890;6.040;2023-02-23T09:18:44;101457.47;;;8.91;92.64
14089;BME280;7120;52.890;6.040;2023-02-23T09:21:18;101453.63;;;8.97;93.43
14089;BME280;7120;52.890;6.040;2023-02-23T09:23:46;101450.28;;;9.30;91.72
14089;BME280;7120;52.890;6.040;2023-02-23T09:26:13;101477.22;;;9.47;91.44
14089;BME280;7120;52.890;6.040;2023-02-23T09:28:41;101449.84;;;9.62;90.71
14089;BME280;7120;52.890;6.040;2023-02-23T09:31:09;101468.94;;;9.73;89.93
14089;BME280;7120;52.890;6.040;2023-02-23T09:33:35;101471.31;;;9.79;87.93
14089;BME280;7120;52.890;6.040;2023-02-23T09:36:08;101447.91;;;9.68;88.39
14089;BME280;7120;52.890;6.040;2023-02-23T09:38:38;101453.09;;;9.64;89.63
14089;BME280;7120;52.890;6.040;2023-02-23T09:41:15;101461.56;;;9.73;88.38
14089;BME280;7120;52.890;6.040;2023-02-23T09:44:06;101466.72;;;9.75;88.19
14089;BME280;7120;52.890;6.040;2023-02-23T09:49:34;101471.00;;;9.31;88.86
14089;BME280;7120;52.890;6.040;2023-02-23T09:52:02;101470.66;;;9.43;89.03
14089;BME280;7120;52.890;6.040;2023-02-23T09:54:32;101466.81;;;9.54;89.09
14089;BME280;7120;52.890;6.040;2023-02-23T09:57:01;101478.91;;;9.33;89.26
14089;BME280;7120;52.890;6.040;2023-02-23T09:59:29;101478.91;;;9.38;90.12
14089;BME280;7120;52.890;6.040;2023-02-23T10:02:17;101479.16;;;9.42;89.79
14089;BME280;7120;52.890;6.040;2023-02-23T10:04:49;101482.53;;;8.98;92.14
14089;BME280;7120;52.890;6.040;2023-02-23T10:16:03;101486.19;;;10.07;88.62
14089;BME280;7120;52.890;6.040;2023-02-23T10:21:33;101482.75;;;10.36;88.33
14089;BME280;7120;52.890;6.040;2023-02-23T10:24:10;101489.72;;;10.57;87.08
14089;BME280;7120;52.890;6.040;2023-02-23T10:26:43;101497.19;;;10.47;87.12
14089;BME280;7120;52.890;6.040;2023-02-23T10:31:58;101504.25;;;10.53;86.92
14089;BME280;7120;52.890;6.040;2023-02-23T10:34:26;101508.84;;;10.23;87.20
14089;BME280;7120;52.890;6.040;2023-02-23T10:37:01;101508.91;;;10.08;87.29
14089;BME280;7120;52.890;6.040;2023-02-23T10:39:31;101499.50;;;9.75;88.43
14089;BME280;7120;52.890;6.040;2023-02-23T10:42:00;101502.84;;;9.61;90.43
14089;BME280;7120;52.890;6.040;2023-02-23T10:44:27;101514.19;;;9.89;88.77
14089;BME280;7120;52.890;6.040;2023-02-23T10:46:59;101504.50;;;10.07;87.89
14089;BME280;7120;52.890;6.040;2023-02-23T10:49:41;101505.47;;;9.87;88.67
14089;BME280;7120;52.890;6.040;2023-02-23T10:52:10;101509.34;;;9.71;88.76
14089;BME280;7120;52.890;6.040;2023-02-23T10:54:44;101513.16;;;9.70;89.62
14089;BME280;7120;52.890;6.040;2023-02-23T10:57:19;101509.97;;;9.52;90.99
14089;BME280;7120;52.890;6.040;2023-02-23T11:02:35;101509.94;;;9.62;91.96
14089;BME280;7120;52.890;6.040;2023-02-23T11:05:05;101510.34;;;9.95;90.93
14089;BME280;7120;52.890;6.040;2023-02-23T11:07:32;101520.81;;;10.32;90.33
14089;BME280;7120;52.890;6.040;2023-02-23T11:09:59;101515.13;;;10.13;89.26
14089;BME280;7120;52.890;6.040;2023-02-23T11:12:43;101511.50;;;10.28;89.65
14089;BME280;7120;52.890;6.040;2023-02-23T11:15:27;101520.47;;;10.44;88.93
14089;BME280;7120;52.890;6.040;2023-02-23T11:18:00;101520.38;;;10.54;87.74
14089;BME280;7120;52.890;6.040;2023-02-23T11:20:34;101518.31;;;10.70;87.42
14089;BME280;7120;52.890;6.040;2023-02-23T11:23:10;101530.31;;;10.40;85.72
14089;BME280;7120;52.890;6.040;2023-02-23T11:25:42;101521.16;;;10.15;87.75
14089;BME280;7120;52.890;6.040;2023-02-23T11:28:17;101523.41;;;10.03;88.99
14089;BME280;7120;52.890;6.040;2023-02-23T11:30:47;101531.28;;;10.15;88.31
14089;BME280;7120;52.890;6.040;2023-02-23T11:33:18;101527.19;;;10.07;88.57
14089;BME280;7120;52.890;6.040;2023-02-23T11:35:45;101523.72;;;9.91;89.50
14089;BME280;7120;52.890;6.040;2023-02-23T11:38:24;101526.59;;;9.66;90.46
14089;BME280;7120;52.890;6.040;2023-02-23T11:40:58;101531.47;;;9.69;90.68
14089;BME280;7120;52.890;6.040;2023-02-23T11:43:24;101529.31;;;9.66;90.27
14089;BME280;7120;52.890;6.040;2023-02-23T11:45:52;101539.66;;;9.69;90.29
14089;BME280;7120;52.890;6.040;2023-02-23T11:48:26;101538.19;;;9.17;91.73
14089;BME280;7120;52.890;6.040;2023-02-23T11:50:53;101530.53;;;9.24;92.68
14089;BME280;7120;52.890;6.040;2023-02-23T11:53:31;101525.31;;;9.38;90.88
14089;BME280;7120;52.890;6.040;2023-02-23T11:56:00;101530.72;;;9.53;90.31
14089;BME280;7120;52.890;6.040;2023-02-23T11:58:49;101517.59;;;9.55;88.74
14089;BME280;7120;52.890;6.040;2023-02-23T12:01:22;101516.91;;;9.89;89.05
14089;BME280;7120;52.890;6.040;2023-02-23T12:03:49;101527.56;;;9.90;87.51
14089;BME280;7120;52.890;6.040;2023-02-23T12:06:31;101521.41;;;10.19;87.79
14089;BME280;7120;52.890;6.040;2023-02-23T12:09:22;101525.56;;;10.06;87.77
14089;BME280;7120;52.890;6.040;2023-02-23T12:12:06;101526.88;;;10.24;88.73
14089;BME280;7120;52.890;6.040;2023-02-23T12:15:05;101525.75;;;10.30;88.34
14089;BME280;7120;52.890;6.040;2023-02-23T12:17:40;101525.84;;;10.54;85.72
14089;BME280;7120;52.890;6.040;2023-02-23T12:20:16;101532.22;;;10.39;86.48
14089;BME280;7120;52.890;6.040;2023-02-23T12:22:50;101518.38;;;10.65;84.58
14089;BME280;7120;52.890;6.040;2023-02-23T12:28:30;101524.53;;;10.47;84.82
14089;BME280;7120;52.890;6.040;2023-02-23T12:30:57;101525.47;;;10.27;84.52
14089;BME280;7120;52.890;6.040;2023-02-23T12:33:30;101530.72;;;10.23;85.38
14089;BME280;7120;52.890;6.040;2023-02-23T12:39:02;101516.31;;;9.97;87.07
14089;BME280;7120;52.890;6.040;2023-02-23T12:41:35;101517.78;;;10.34;87.91
14089;BME280;7120;52.890;6.040;2023-02-23T12:47:00;101520.59;;;10.24;85.25
14089;BME280;7120;52.890;6.040;2023-02-23T12:49:43;101512.38;;;10.18;87.08
14089;BME280;7120;52.890;6.040;2023-02-23T12:52:16;101523.66;;;10.07;86.45
14089;BME280;7120;52.890;6.040;2023-02-23T12:54:43;101506.41;;;10.11;87.55
14089;BME280;7120;52.890;6.040;2023-02-23T13:00:10;101520.38;;;10.10;84.98
14089;BME280;7120;52.890;6.040;2023-02-23T13:06:03;101522.19;;;9.65;86.31
14089;BME280;7120;52.890;6.040;2023-02-23T13:08:43;101529.88;;;9.58;88.13
14089;BME280;7120;52.890;6.040;2023-02-23T13:16:49;101537.81;;;9.59;88.47
14089;BME280;7120;52.890;6.040;2023-02-23T13:24:47;101549.09;;;8.71;95.32
14089;BME280;7120;52.890;6.040;2023-02-23T13:27:32;101549.53;;;8.17;97.58
14089;BME280;7120;52.890;6.040;2023-02-23T13:29:59;101549.78;;;8.06;99.16
14089;BME280;7120;52.890;6.040;2023-02-23T13:32:30;101552.19;;;8.02;100.00
14089;BME280;7120;52.890;6.040;2023-02-23T13:35:02;101543.72;;;7.88;100.00
14089;BME280;7120;52.890;6.040;2023-02-23T13:43:02;101562.47;;;7.80;100.00
14089;BME280;7120;52.890;6.040;2023-02-23T13:45:40;101561.41;;;7.86;100.00
14089;BME280;7120;52.890;6.040;2023-02-23T13:53:44;101564.31;;;7.64;100.00
14089;BME280;7120;52.890;6.040;2023-02-23T13:56:16;101573.78;;;7.56;100.00
14089;BME280;7120;52.890;6.040;2023-02-23T13:59:04;101555.56;;;7.57;100.00
14089;BME280;7120;52.890;6.040;2023-02-23T14:01:39;101580.91;;;7.67;100.00
14089;BME280;7120;52.890;6.040;2023-02-23T14:04:25;101575.66;;;7.51;100.00
14089;BME280;7120;52.890;6.040;2023-02-23T14:07:00;101583.56;;;7.52;100.00
14089;BME280;7120;52.890;6.040;2023-02-23T14:09:31;101574.53;;;7.41;100.00
14089;BME280;7120;52.890;6.040;2023-02-23T14:17:10;101581.84;;;7.36;100.00
14089;BME280;7120;52.890;6.040;2023-02-23T14:19:37;101588.13;;;7.41;99.69
14089;BME280;7120;52.890;6.040;2023-02-23T14:22:14;101587.56;;;7.39;99.06
14089;BME280;7120;52.890;6.040;2023-02-23T14:24:41;101584.84;;;7.39;98.69
14089;BME280;7120;52.890;6.040;2023-02-23T14:27:19;101589.09;;;7.25;98.97
14089;BME280;7120;52.890;6.040;2023-02-23T14:38:50;101591.22;;;7.18;98.24
14089;BME280;7120;52.890;6.040;2023-02-23T14:41:09;101586.63;;;7.24;98.22
14089;BME280;7120;52.890;6.040;2023-02-23T14:43:40;101589.56;;;7.12;98.02
14089;BME280;7120;52.890;6.040;2023-02-23T14:46:18;101595.00;;;7.12;98.82
14089;BME280;7120;52.890;6.040;2023-02-23T14:51:36;101591.31;;;6.96;100.00
14089;BME280;7120;52.890;6.040;2023-02-23T14:54:21;101598.72;;;7.01;100.00
14089;BME280;7120;52.890;6.040;2023-02-23T14:56:50;101591.84;;;6.93;100.00
14089;BME280;7120;52.890;6.040;2023-02-23T14:59:21;101603.84;;;6.97;100.00
14089;BME280;7120;52.890;6.040;2023-02-23T15:01:48;101601.56;;;6.84;100.00
14089;BME280;7120;52.890;6.040;2023-02-23T15:04:22;101602.81;;;6.71;100.00
14089;BME280;7120;52.890;6.040;2023-02-23T15:06:58;101608.59;;;6.80;100.00
14089;BME280;7120;52.890;6.040;2023-02-23T15:09:35;101614.31;;;6.83;99.76
14089;BME280;7120;52.890;6.040;2023-02-23T15:12:10;101613.31;;;6.63;99.82
14089;BME280;7120;52.890;6.040;2023-02-23T15:14:38;101608.31;;;6.81;100.00
14089;BME280;7120;52.890;6.040;2023-02-23T15:17:05;101607.34;;;6.93;99.54
14089;BME280;7120;52.890;6.040;2023-02-23T15:19:35;101614.91;;;6.85;97.21
14089;BME280;7120;52.890;6.040;2023-02-23T15:22:04;101610.09;;;6.66;97.97
14089;BME280;7120;52.890;6.040;2023-02-23T15:24:41;101607.41;;;6.98;98.52
14089;BME280;7120;52.890;6.040;2023-02-23T15:27:19;101612.66;;;7.09;96.12
14089;BME280;7120;52.890;6.040;2023-02-23T15:29:47;101611.59;;;7.15;94.56
14089;BME280;7120;52.890;6.040;2023-02-23T15:32:18;101620.53;;;7.06;94.63